createdAt,value
2023-01-12T00:00:54.696Z,7.3
2023-01-12T00:10:56.524Z,7.5
2023-01-12T00:20:59.127Z,7.5
2023-01-12T00:31:00.901Z,7.8
2023-01-12T00:41:03.221Z,7.8
2023-01-12T00:51:05.610Z,7.5
2023-01-12T01:01:08.317Z,7.4
2023-01-12T01:11:10.222Z,7.5
2023-01-12T01:21:12.156Z,7.7
2023-01-12T01:31:14.598Z,7.9
2023-01-12T01:41:16.885Z,8
2023-01-12T01:51:19.479Z,8
2023-01-12T02:01:21.937Z,8
2023-01-12T02:11:24.104Z,8
2023-01-12T02:21:25.742Z,8.1
2023-01-12T02:31:27.528Z,7.9
2023-01-12T02:41:29.158Z,7.9
2023-01-12T02:51:30.886Z,7.8
2023-01-12T03:01:32.682Z,7.8
2023-01-12T03:11:34.528Z,7.8
2023-01-12T03:21:36.643Z,7.8
2023-01-12T03:41:40.784Z,7.7
2023-01-12T03:51:42.511Z,7.7
2023-01-12T04:01:44.952Z,7.8
2023-01-12T04:31:51.232Z,8
2023-01-12T05:01:57.802Z,8
2023-01-12T05:12:00.279Z,7.9
2023-01-12T05:22:02.393Z,7.9
2023-01-12T05:32:04.372Z,7.8
2023-01-12T05:42:06.348Z,7.9
2023-01-12T05:52:08.761Z,7.9
2023-01-12T06:02:10.806Z,7.9
2023-01-12T06:12:12.740Z,7.8
2023-01-12T06:12:19.634Z,7.7
2023-01-12T06:22:21.980Z,7.8
2023-01-12T06:42:26.197Z,7.9
2023-01-12T06:52:28.244Z,7.9
2023-01-12T07:02:30.038Z,8
2023-01-12T07:12:32.680Z,7.9
2023-01-12T07:22:34.736Z,8
2023-01-12T07:32:37.331Z,8
2023-01-12T07:42:38.995Z,8.1
2023-01-12T07:52:40.739Z,8.2
2023-01-12T08:02:42.427Z,8.3
2023-01-12T08:12:44.607Z,8.3
2023-01-12T08:22:47.169Z,8.5
2023-01-12T08:32:49.200Z,8.6
2023-01-12T08:42:51.523Z,8.7
2023-01-12T08:52:53.572Z,8.8
2023-01-12T09:02:55.778Z,8.8
2023-01-12T09:12:57.669Z,9
2023-01-12T09:22:59.446Z,9.1
2023-01-12T09:33:01.757Z,9.3
2023-01-12T09:43:03.441Z,9.3
2023-01-12T09:53:05.681Z,9.4
2023-01-12T10:03:07.422Z,9.5
2023-01-12T10:13:09.401Z,9.6
2023-01-12T10:23:11.078Z,9.8
2023-01-12T10:33:13.100Z,9.9
2023-01-12T10:43:19.492Z,9.9
2023-01-12T10:53:17.138Z,9.6
2023-01-12T11:03:19.351Z,9.6
2023-01-12T11:13:21.585Z,9.8
2023-01-12T11:23:24.104Z,9.7
2023-01-12T11:43:28.525Z,9.4
2023-01-12T11:53:30.292Z,9.5
2023-01-12T12:03:32.268Z,9.5
2023-01-12T12:13:33.935Z,9.4
2023-01-12T12:23:36.505Z,9.3
2023-01-12T12:33:39.033Z,9.3
2023-01-12T12:43:41.019Z,9.4
2023-01-12T12:53:43.259Z,9.3
2023-01-12T13:03:45.758Z,9.3
2023-01-12T13:13:48.220Z,9.2
2023-01-12T13:23:50.771Z,9.2
2023-01-12T13:33:53.120Z,9.5
2023-01-12T13:43:55.173Z,9.8
2023-01-12T14:03:59.889Z,9.8
2023-01-12T14:14:02.305Z,9.7
2023-01-12T14:24:04.383Z,9.7
2023-01-12T14:34:06.978Z,9.6
2023-01-12T14:54:10.933Z,9.6
2023-01-12T15:04:13.111Z,9.6
2023-01-12T15:14:15.463Z,9.6
2023-01-12T16:14:28.601Z,9.5
2023-01-12T16:34:32.150Z,9.6
2023-01-12T16:44:34.137Z,9.5
2023-01-12T17:24:42.549Z,9.5
2023-01-12T18:34:56.541Z,9.5
2023-01-12T18:44:58.277Z,9.6
2023-01-12T18:55:00.630Z,9.5
2023-01-12T19:15:05.031Z,9.5
2023-01-12T20:15:16.072Z,9.6
2023-01-12T20:45:22.188Z,9.6
2023-01-12T22:35:44.646Z,9.8
2023-01-12T22:45:46.730Z,9.7
2023-01-12T22:55:49.060Z,9.6
2023-01-12T23:05:50.760Z,9.7
2023-01-12T23:15:53.289Z,9.7
2023-01-12T23:25:55.309Z,9.4
2023-01-12T23:35:57.015Z,9.5
2023-01-12T23:56:01.140Z,9.4
